sensor_id;sensor_type;location;lat;lon;timestamp;P1;durP1;ratioP1;P2;durP2;ratioP2
22094;SDS011;24083;55.670;37.568;2024-03-23T00:54:16;38.15;;;19.88;;
22094;SDS011;24083;55.670;37.568;2024-03-23T00:56:42;33.17;;;17.83;;
22094;SDS011;24083;55.670;37.568;2024-03-23T00:59:08;41.40;;;23.88;;
22094;SDS011;24083;55.670;37.568;2024-03-23T01:01:35;32.75;;;17.63;;
22094;SDS011;24083;55.670;37.568;2024-03-23T01:04:02;42.17;;;25.60;;
22094;SDS011;24083;55.670;37.568;2024-03-23T01:06:32;32.85;;;16.77;;
22094;SDS011;24083;55.670;37.568;2024-03-23T01:08:59;21.40;;;10.23;;
22094;SDS011;24083;55.670;37.568;2024-03-23T01:11:32;27.33;;;12.57;;
22094;SDS011;24083;55.670;37.568;2024-03-23T01:13:59;26.02;;;14.20;;
22094;SDS011;24083;55.670;37.568;2024-03-23T01:16:24;36.50;;;19.42;;
22094;SDS011;24083;55.670;37.568;2024-03-23T01:21:47;35.83;;;18.42;;
22094;SDS011;24083;55.670;37.568;2024-03-23T01:24:14;26.10;;;11.35;;
22094;SDS011;24083;55.670;37.568;2024-03-23T01:32:11;44.50;;;22.23;;
22094;SDS011;24083;55.670;37.568;2024-03-23T01:34:38;37.85;;;21.08;;
22094;SDS011;24083;55.670;37.568;2024-03-23T01:37:04;37.97;;;20.67;;
22094;SDS011;24083;55.670;37.568;2024-03-23T01:42:03;25.45;;;12.50;;
22094;SDS011;24083;55.670;37.568;2024-03-23T01:44:30;36.33;;;18.35;;
22094;SDS011;24083;55.670;37.568;2024-03-23T01:46:56;28.45;;;13.93;;
22094;SDS011;24083;55.670;37.568;2024-03-23T01:49:22;32.28;;;18.17;;
22094;SDS011;24083;55.670;37.568;2024-03-23T01:51:48;25.77;;;12.88;;
22094;SDS011;24083;55.670;37.568;2024-03-23T01:54:16;31.60;;;16.20;;
22094;SDS011;24083;55.670;37.568;2024-03-23T01:56:43;21.33;;;10.85;;
22094;SDS011;24083;55.670;37.568;2024-03-23T01:59:08;32.00;;;17.40;;
22094;SDS011;24083;55.670;37.568;2024-03-23T02:01:34;32.40;;;18.13;;
22094;SDS011;24083;55.670;37.568;2024-03-23T02:04:02;30.25;;;15.13;;
22094;SDS011;24083;55.670;37.568;2024-03-23T02:06:29;34.70;;;17.83;;
22094;SDS011;24083;55.670;37.568;2024-03-23T02:08:56;33.17;;;18.63;;
22094;SDS011;24083;55.670;37.568;2024-03-23T02:11:22;35.83;;;19.00;;
22094;SDS011;24083;55.670;37.568;2024-03-23T02:13:49;25.15;;;12.32;;
22094;SDS011;24083;55.670;37.568;2024-03-23T02:16:15;39.20;;;20.88;;
22094;SDS011;24083;55.670;37.568;2024-03-23T02:18:43;27.08;;;13.60;;
22094;SDS011;24083;55.670;37.568;2024-03-23T02:24:01;36.90;;;21.52;;
22094;SDS011;24083;55.670;37.568;2024-03-23T02:26:29;28.85;;;13.18;;
22094;SDS011;24083;55.670;37.568;2024-03-23T02:28:56;29.58;;;14.13;;
22094;SDS011;24083;55.670;37.568;2024-03-23T02:31:21;21.40;;;11.35;;
22094;SDS011;24083;55.670;37.568;2024-03-23T02:33:48;37.20;;;21.65;;
22094;SDS011;24083;55.670;37.568;2024-03-23T02:36:15;31.70;;;16.63;;
22094;SDS011;24083;55.670;37.568;2024-03-23T02:38:43;38.67;;;19.23;;
22094;SDS011;24083;55.670;37.568;2024-03-23T02:41:09;35.70;;;20.25;;
22094;SDS011;24083;55.670;37.568;2024-03-23T02:43:43;26.50;;;11.35;;
22094;SDS011;24083;55.670;37.568;2024-03-23T02:46:09;27.90;;;14.15;;
22094;SDS011;24083;55.670;37.568;2024-03-23T02:48:35;41.38;;;24.40;;
22094;SDS011;24083;55.670;37.568;2024-03-23T02:51:05;33.92;;;18.25;;
22094;SDS011;24083;55.670;37.568;2024-03-23T02:53:38;35.58;;;20.23;;
22094;SDS011;24083;55.670;37.568;2024-03-23T02:56:03;30.48;;;17.27;;
22094;SDS011;24083;55.670;37.568;2024-03-23T02:58:30;33.40;;;18.50;;
22094;SDS011;24083;55.670;37.568;2024-03-23T03:00:58;30.05;;;17.48;;
22094;SDS011;24083;55.670;37.568;2024-03-23T03:03:28;31.45;;;16.85;;
22094;SDS011;24083;55.670;37.568;2024-03-23T03:08:45;24.85;;;14.25;;
22094;SDS011;24083;55.670;37.568;2024-03-23T03:11:11;37.90;;;19.50;;
22094;SDS011;24083;55.670;37.568;2024-03-23T03:19:23;27.80;;;13.80;;
22094;SDS011;24083;55.670;37.568;2024-03-23T03:21:52;28.98;;;14.02;;
22094;SDS011;24083;55.670;37.568;2024-03-23T03:24:19;34.38;;;19.30;;
22094;SDS011;24083;55.670;37.568;2024-03-23T03:26:47;37.08;;;20.02;;
22094;SDS011;24083;55.670;37.568;2024-03-23T03:29:17;35.30;;;17.88;;
22094;SDS011;24083;55.670;37.568;2024-03-23T03:31:44;34.13;;;19.38;;
22094;SDS011;24083;55.670;37.568;2024-03-23T03:34:10;34.47;;;17.63;;
22094;SDS011;24083;55.670;37.568;2024-03-23T03:36:47;28.77;;;13.05;;
22094;SDS011;24083;55.670;37.568;2024-03-23T03:39:14;38.92;;;19.67;;
22094;SDS011;24083;55.670;37.568;2024-03-23T03:41:45;31.92;;;15.75;;
22094;SDS011;24083;55.670;37.568;2024-03-23T03:44:12;31.23;;;16.95;;
22094;SDS011;24083;55.670;37.568;2024-03-23T03:46:38;35.80;;;20.48;;
22094;SDS011;24083;55.670;37.568;2024-03-23T03:49:06;30.15;;;16.45;;
22094;SDS011;24083;55.670;37.568;2024-03-23T03:51:33;34.85;;;18.83;;
22094;SDS011;24083;55.670;37.568;2024-03-23T03:53:59;34.17;;;18.27;;
22094;SDS011;24083;55.670;37.568;2024-03-23T03:56:26;30.83;;;17.75;;
22094;SDS011;24083;55.670;37.568;2024-03-23T03:58:54;32.60;;;18.25;;
22094;SDS011;24083;55.670;37.568;2024-03-23T04:06:50;30.60;;;16.77;;
22094;SDS011;24083;55.670;37.568;2024-03-23T04:12:02;32.35;;;18.10;;
22094;SDS011;24083;55.670;37.568;2024-03-23T04:14:28;23.45;;;12.13;;
22094;SDS011;24083;55.670;37.568;2024-03-23T04:21:02;34.20;;;18.92;;
22094;SDS011;24083;55.670;37.568;2024-03-23T04:23:32;29.85;;;15.35;;
22094;SDS011;24083;55.670;37.568;2024-03-23T04:26:10;29.73;;;16.05;;
22094;SDS011;24083;55.670;37.568;2024-03-23T04:31:04;34.03;;;19.38;;
22094;SDS011;24083;55.670;37.568;2024-03-23T04:33:32;25.38;;;13.40;;
22094;SDS011;24083;55.670;37.568;2024-03-23T04:38:50;31.33;;;17.90;;
22094;SDS011;24083;55.670;37.568;2024-03-23T04:41:18;29.90;;;17.85;;
22094;SDS011;24083;55.670;37.568;2024-03-23T04:43:46;26.92;;;15.50;;
22094;SDS011;24083;55.670;37.568;2024-03-23T04:46:11;29.25;;;19.60;;
22094;SDS011;24083;55.670;37.568;2024-03-23T04:48:39;31.23;;;19.42;;
22094;SDS011;24083;55.670;37.568;2024-03-23T04:51:05;31.83;;;17.48;;
22094;SDS011;24083;55.670;37.568;2024-03-23T04:53:31;31.13;;;16.65;;
22094;SDS011;24083;55.670;37.568;2024-03-23T04:55:58;28.90;;;17.67;;
22094;SDS011;24083;55.670;37.568;2024-03-23T04:58:28;31.95;;;16.75;;
22094;SDS011;24083;55.670;37.568;2024-03-23T05:04:28;23.58;;;12.85;;
22094;SDS011;24083;55.670;37.568;2024-03-23T05:06:55;19.42;;;11.10;;
22094;SDS011;24083;55.670;37.568;2024-03-23T05:09:23;24.95;;;13.60;;
22094;SDS011;24083;55.670;37.568;2024-03-23T05:11:56;25.38;;;16.23;;
22094;SDS011;24083;55.670;37.568;2024-03-23T05:14:40;20.63;;;12.50;;
22094;SDS011;24083;55.670;37.568;2024-03-23T05:17:07;27.13;;;15.50;;
22094;SDS011;24083;55.670;37.568;2024-03-23T05:19:33;25.20;;;15.07;;
22094;SDS011;24083;55.670;37.568;2024-03-23T05:21:59;22.30;;;12.77;;
22094;SDS011;24083;55.670;37.568;2024-03-23T05:24:26;26.25;;;15.20;;
22094;SDS011;24083;55.670;37.568;2024-03-23T05:26:52;22.70;;;13.13;;
22094;SDS011;24083;55.670;37.568;2024-03-23T05:29:28;26.88;;;14.40;;
22094;SDS011;24083;55.670;37.568;2024-03-23T05:35:30;27.02;;;16.27;;
22094;SDS011;24083;55.670;37.568;2024-03-23T05:38:00;20.13;;;10.77;;
22094;SDS011;24083;55.670;37.568;2024-03-23T05:40:30;20.80;;;12.73;;
22094;SDS011;24083;55.670;37.568;2024-03-23T05:47:02;22.13;;;13.30;;
22094;SDS011;24083;55.670;37.568;2024-03-23T06:02:23;26.73;;;16.20;;
22094;SDS011;24083;55.670;37.568;2024-03-23T06:04:50;17.80;;;10.20;;
22094;SDS011;24083;55.670;37.568;2024-03-23T06:07:22;24.73;;;16.02;;
22094;SDS011;24083;55.670;37.568;2024-03-23T06:09:50;18.63;;;10.10;;
22094;SDS011;24083;55.670;37.568;2024-03-23T06:23:00;18.75;;;10.52;;
22094;SDS011;24083;55.670;37.568;2024-03-23T06:25:28;20.27;;;12.32;;
22094;SDS011;24083;55.670;37.568;2024-03-23T06:27:57;21.80;;;12.52;;
22094;SDS011;24083;55.670;37.568;2024-03-23T06:33:15;15.15;;;8.52;;
22094;SDS011;24083;55.670;37.568;2024-03-23T06:35:53;24.30;;;14.75;;
22094;SDS011;24083;55.670;37.568;2024-03-23T06:38:23;23.05;;;12.07;;
22094;SDS011;24083;55.670;37.568;2024-03-23T06:40:51;17.60;;;11.00;;
22094;SDS011;24083;55.670;37.568;2024-03-23T06:46:12;24.90;;;15.55;;
22094;SDS011;24083;55.670;37.568;2024-03-23T06:48:45;23.33;;;13.70;;
22094;SDS011;24083;55.670;37.568;2024-03-23T07:05:17;19.98;;;11.88;;
22094;SDS011;24083;55.670;37.568;2024-03-23T07:25:08;15.27;;;7.65;;
22094;SDS011;24083;55.670;37.568;2024-03-23T07:27:46;18.85;;;10.50;;
22094;SDS011;24083;55.670;37.568;2024-03-23T07:33:24;17.40;;;10.27;;
22094;SDS011;24083;55.670;37.568;2024-03-23T07:35:52;11.15;;;6.65;;
22094;SDS011;24083;55.670;37.568;2024-03-23T07:38:19;12.60;;;6.95;;
22094;SDS011;24083;55.670;37.568;2024-03-23T07:40:46;12.73;;;7.53;;
22094;SDS011;24083;55.670;37.568;2024-03-23T08:30:16;13.20;;;8.88;;
22094;SDS011;24083;55.670;37.568;2024-03-23T08:47:46;14.60;;;9.80;;
22094;SDS011;24083;55.670;37.568;2024-03-23T08:50:13;11.60;;;6.93;;
22094;SDS011;24083;55.670;37.568;2024-03-23T08:53:17;13.48;;;7.38;;
22094;SDS011;24083;55.670;37.568;2024-03-23T09:46:58;7.80;;;5.10;;
22094;SDS011;24083;55.670;37.568;2024-03-23T11:02:08;17.88;;;12.50;;
22094;SDS011;24083;55.670;37.568;2024-03-23T11:25:33;13.55;;;8.38;;
22094;SDS011;24083;55.670;37.568;2024-03-23T11:28:17;10.13;;;6.50;;
22094;SDS011;24083;55.670;37.568;2024-03-23T11:30:43;14.20;;;8.07;;
22094;SDS011;24083;55.670;37.568;2024-03-23T11:33:12;11.48;;;7.03;;
22094;SDS011;24083;55.670;37.568;2024-03-23T11:35:38;12.13;;;8.07;;
22094;SDS011;24083;55.670;37.568;2024-03-23T11:38:11;11.13;;;6.83;;
22094;SDS011;24083;55.670;37.568;2024-03-23T11:40:38;17.23;;;10.07;;
22094;SDS011;24083;55.670;37.568;2024-03-23T11:43:08;10.75;;;6.10;;
22094;SDS011;24083;55.670;37.568;2024-03-23T11:45:39;14.35;;;8.48;;
22094;SDS011;24083;55.670;37.568;2024-03-23T11:48:06;16.50;;;9.23;;
22094;SDS011;24083;55.670;37.568;2024-03-23T11:50:32;9.48;;;5.57;;
22094;SDS011;24083;55.670;37.568;2024-03-23T11:55:41;12.15;;;7.97;;
22094;SDS011;24083;55.670;37.568;2024-03-23T11:58:07;16.23;;;9.63;;
22094;SDS011;24083;55.670;37.568;2024-03-23T12:00:34;17.45;;;11.82;;
22094;SDS011;24083;55.670;37.568;2024-03-23T12:03:00;17.38;;;10.27;;
22094;SDS011;24083;55.670;37.568;2024-03-23T12:05:27;16.33;;;11.50;;
22094;SDS011;24083;55.670;37.568;2024-03-23T12:07:55;22.77;;;13.13;;
22094;SDS011;24083;55.670;37.568;2024-03-23T12:11:16;22.67;;;13.38;;
22094;SDS011;24083;55.670;37.568;2024-03-23T12:13:46;18.70;;;10.90;;
22094;SDS011;24083;55.670;37.568;2024-03-23T12:16:14;21.23;;;14.07;;
22094;SDS011;24083;55.670;37.568;2024-03-23T12:21:20;24.30;;;15.18;;
22094;SDS011;24083;55.670;37.568;2024-03-23T12:23:55;15.38;;;8.05;;
22094;SDS011;24083;55.670;37.568;2024-03-23T12:26:20;15.43;;;8.60;;
22094;SDS011;24083;55.670;37.568;2024-03-23T12:28:52;11.15;;;5.85;;
22094;SDS011;24083;55.670;37.568;2024-03-23T12:31:22;18.95;;;8.55;;
22094;SDS011;24083;55.670;37.568;2024-03-23T12:33:51;21.75;;;13.13;;
22094;SDS011;24083;55.670;37.568;2024-03-23T12:36:18;19.73;;;11.40;;
22094;SDS011;24083;55.670;37.568;2024-03-23T12:38:47;12.13;;;6.60;;
22094;SDS011;24083;55.670;37.568;2024-03-23T12:41:13;15.02;;;8.73;;
22094;SDS011;24083;55.670;37.568;2024-03-23T12:43:41;14.23;;;7.65;;
22094;SDS011;24083;55.670;37.568;2024-03-23T12:46:15;20.73;;;11.43;;
22094;SDS011;24083;55.670;37.568;2024-03-23T12:48:40;20.10;;;10.68;;
22094;SDS011;24083;55.670;37.568;2024-03-23T12:53:55;19.27;;;10.88;;
22094;SDS011;24083;55.670;37.568;2024-03-23T12:56:22;13.75;;;7.50;;
22094;SDS011;24083;55.670;37.568;2024-03-23T12:58:48;19.88;;;10.77;;
22094;SDS011;24083;55.670;37.568;2024-03-23T13:01:17;28.67;;;15.85;;
22094;SDS011;24083;55.670;37.568;2024-03-23T13:03:43;22.02;;;12.00;;
22094;SDS011;24083;55.670;37.568;2024-03-23T13:06:11;21.77;;;12.57;;
22094;SDS011;24083;55.670;37.568;2024-03-23T13:08:37;19.48;;;10.07;;
22094;SDS011;24083;55.670;37.568;2024-03-23T13:11:07;18.95;;;7.85;;
22094;SDS011;24083;55.670;37.568;2024-03-23T13:13:39;20.27;;;9.93;;
22094;SDS011;24083;55.670;37.568;2024-03-23T13:16:05;13.25;;;6.28;;
22094;SDS011;24083;55.670;37.568;2024-03-23T13:18:34;19.27;;;9.50;;
22094;SDS011;24083;55.670;37.568;2024-03-23T13:21:00;19.65;;;11.32;;
22094;SDS011;24083;55.670;37.568;2024-03-23T13:23:28;20.05;;;8.23;;
22094;SDS011;24083;55.670;37.568;2024-03-23T13:25:55;14.82;;;8.18;;
22094;SDS011;24083;55.670;37.568;2024-03-23T13:28:33;19.15;;;12.18;;
22094;SDS011;24083;55.670;37.568;2024-03-23T13:30:59;18.75;;;10.85;;
22094;SDS011;24083;55.670;37.568;2024-03-23T13:33:29;15.77;;;10.18;;
22094;SDS011;24083;55.670;37.568;2024-03-23T13:35:56;20.23;;;11.73;;
22094;SDS011;24083;55.670;37.568;2024-03-23T13:38:22;15.00;;;8.50;;
22094;SDS011;24083;55.670;37.568;2024-03-23T13:40:54;17.15;;;9.45;;
22094;SDS011;24083;55.670;37.568;2024-03-23T13:43:22;18.17;;;12.70;;
22094;SDS011;24083;55.670;37.568;2024-03-23T13:45:49;18.05;;;10.43;;
22094;SDS011;24083;55.670;37.568;2024-03-23T13:48:25;12.93;;;7.00;;
22094;SDS011;24083;55.670;37.568;2024-03-23T13:53:31;10.38;;;5.72;;
22094;SDS011;24083;55.670;37.568;2024-03-23T13:56:00;16.73;;;9.63;;
22094;SDS011;24083;55.670;37.568;2024-03-23T13:58:28;20.10;;;11.07;;
22094;SDS011;24083;55.670;37.568;2024-03-23T14:00:57;18.27;;;11.07;;
22094;SDS011;24083;55.670;37.568;2024-03-23T14:03:23;11.52;;;7.88;;
22094;SDS011;24083;55.670;37.568;2024-03-23T14:05:49;13.30;;;7.30;;
22094;SDS011;24083;55.670;37.568;2024-03-23T14:08:16;11.27;;;6.13;;
22094;SDS011;24083;55.670;37.568;2024-03-23T14:10:48;13.90;;;8.25;;
22094;SDS011;24083;55.670;37.568;2024-03-23T14:13:16;10.05;;;6.25;;
22094;SDS011;24083;55.670;37.568;2024-03-23T14:15:44;11.05;;;6.03;;
22094;SDS011;24083;55.670;37.568;2024-03-23T14:18:14;15.43;;;8.88;;
22094;SDS011;24083;55.670;37.568;2024-03-23T14:20:40;17.00;;;10.02;;
22094;SDS011;24083;55.670;37.568;2024-03-23T14:23:05;12.45;;;6.90;;
22094;SDS011;24083;55.670;37.568;2024-03-23T14:25:32;16.58;;;11.52;;
22094;SDS011;24083;55.670;37.568;2024-03-23T14:28:02;8.40;;;4.72;;
22094;SDS011;24083;55.670;37.568;2024-03-23T14:30:34;11.13;;;6.93;;
22094;SDS011;24083;55.670;37.568;2024-03-23T14:33:01;11.57;;;6.85;;
22094;SDS011;24083;55.670;37.568;2024-03-23T14:35:30;16.02;;;10.55;;
22094;SDS011;24083;55.670;37.568;2024-03-23T14:37:57;13.98;;;9.23;;
22094;SDS011;24083;55.670;37.568;2024-03-23T14:40:29;9.50;;;5.72;;
22094;SDS011;24083;55.670;37.568;2024-03-23T14:42:55;16.38;;;8.70;;
22094;SDS011;24083;55.670;37.568;2024-03-23T14:45:24;10.18;;;6.47;;
22094;SDS011;24083;55.670;37.568;2024-03-23T14:47:50;13.63;;;8.68;;
22094;SDS011;24083;55.670;37.568;2024-03-23T14:50:16;13.98;;;8.43;;
22094;SDS011;24083;55.670;37.568;2024-03-23T14:52:46;9.48;;;5.65;;
22094;SDS011;24083;55.670;37.568;2024-03-23T14:55:12;12.55;;;7.38;;
22094;SDS011;24083;55.670;37.568;2024-03-23T15:00:09;9.57;;;5.57;;
22094;SDS011;24083;55.670;37.568;2024-03-23T15:02:42;11.68;;;5.78;;
22094;SDS011;24083;55.670;37.568;2024-03-23T15:05:07;9.98;;;5.03;;
22094;SDS011;24083;55.670;37.568;2024-03-23T15:07:36;13.43;;;7.40;;
22094;SDS011;24083;55.670;37.568;2024-03-23T15:10:04;14.07;;;8.93;;
22094;SDS011;24083;55.670;37.568;2024-03-23T15:12:31;12.55;;;6.38;;
22094;SDS011;24083;55.670;37.568;2024-03-23T15:15:00;14.10;;;8.70;;
22094;SDS011;24083;55.670;37.568;2024-03-23T15:17:28;10.32;;;6.82;;
22094;SDS011;24083;55.670;37.568;2024-03-23T15:20:13;13.82;;;8.15;;
22094;SDS011;24083;55.670;37.568;2024-03-23T15:22:42;13.52;;;8.52;;
22094;SDS011;24083;55.670;37.568;2024-03-23T15:25:08;8.43;;;5.30;;
22094;SDS011;24083;55.670;37.568;2024-03-23T15:27:37;13.85;;;7.25;;
22094;SDS011;24083;55.670;37.568;2024-03-23T15:30:02;14.45;;;8.98;;
22094;SDS011;24083;55.670;37.568;2024-03-23T15:32:36;13.20;;;7.45;;
22094;SDS011;24083;55.670;37.568;2024-03-23T15:35:02;16.33;;;10.07;;
22094;SDS011;24083;55.670;37.568;2024-03-23T15:37:31;16.15;;;9.65;;
22094;SDS011;24083;55.670;37.568;2024-03-23T15:39:57;9.70;;;6.43;;
22094;SDS011;24083;55.670;37.568;2024-03-23T15:42:26;10.30;;;5.85;;
22094;SDS011;24083;55.670;37.568;2024-03-23T15:44:55;10.30;;;4.95;;
22094;SDS011;24083;55.670;37.568;2024-03-23T15:47:22;8.07;;;5.15;;
22094;SDS011;24083;55.670;37.568;2024-03-23T15:49:58;6.53;;;3.35;;
22094;SDS011;24083;55.670;37.568;2024-03-23T15:53:17;12.07;;;8.05;;
22094;SDS011;24083;55.670;37.568;2024-03-23T15:55:43;7.13;;;4.25;;
22094;SDS011;24083;55.670;37.568;2024-03-23T15:58:09;13.43;;;9.48;;
22094;SDS011;24083;55.670;37.568;2024-03-23T16:00:36;12.98;;;7.57;;
22094;SDS011;24083;55.670;37.568;2024-03-23T16:03:02;8.63;;;5.45;;
22094;SDS011;24083;55.670;37.568;2024-03-23T16:05:32;11.43;;;6.85;;
22094;SDS011;24083;55.670;37.568;2024-03-23T16:08:14;8.82;;;5.30;;
22094;SDS011;24083;55.670;37.568;2024-03-23T16:10:42;11.10;;;8.05;;
22094;SDS011;24083;55.670;37.568;2024-03-23T16:13:11;13.27;;;8.07;;
22094;SDS011;24083;55.670;37.568;2024-03-23T16:15:42;7.88;;;5.10;;
22094;SDS011;24083;55.670;37.568;2024-03-23T16:18:08;10.73;;;6.47;;
22094;SDS011;24083;55.670;37.568;2024-03-23T16:23:47;9.23;;;6.18;;
22094;SDS011;24083;55.670;37.568;2024-03-23T16:26:13;13.02;;;10.40;;
22094;SDS011;24083;55.670;37.568;2024-03-23T16:31:36;10.85;;;6.20;;
22094;SDS011;24083;55.670;37.568;2024-03-23T16:34:04;10.40;;;7.20;;
22094;SDS011;24083;55.670;37.568;2024-03-23T16:36:35;10.00;;;6.20;;
22094;SDS011;24083;55.670;37.568;2024-03-23T16:39:12;14.50;;;8.45;;
22094;SDS011;24083;55.670;37.568;2024-03-23T16:41:51;10.35;;;6.80;;
22094;SDS011;24083;55.670;37.568;2024-03-23T16:44:18;9.82;;;6.68;;
22094;SDS011;24083;55.670;37.568;2024-03-23T16:49:27;18.20;;;9.50;;
22094;SDS011;24083;55.670;37.568;2024-03-23T16:51:53;10.02;;;6.63;;
22094;SDS011;24083;55.670;37.568;2024-03-23T16:54:19;8.75;;;5.88;;
22094;SDS011;24083;55.670;37.568;2024-03-23T16:56:44;8.80;;;6.20;;
22094;SDS011;24083;55.670;37.568;2024-03-23T16:59:13;8.45;;;5.10;;
22094;SDS011;24083;55.670;37.568;2024-03-23T17:01:52;8.95;;;5.35;;
22094;SDS011;24083;55.670;37.568;2024-03-23T17:04:18;9.27;;;5.53;;
22094;SDS011;24083;55.670;37.568;2024-03-23T17:06:54;8.05;;;5.60;;
22094;SDS011;24083;55.670;37.568;2024-03-23T17:09:21;10.60;;;7.78;;
22094;SDS011;24083;55.670;37.568;2024-03-23T17:14:26;10.00;;;7.68;;
22094;SDS011;24083;55.670;37.568;2024-03-23T17:17:11;7.47;;;5.50;;
22094;SDS011;24083;55.670;37.568;2024-03-23T17:22:31;10.98;;;8.45;;
22094;SDS011;24083;55.670;37.568;2024-03-23T17:25:07;11.02;;;6.97;;
22094;SDS011;24083;55.670;37.568;2024-03-23T17:27:45;7.45;;;4.75;;
22094;SDS011;24083;55.670;37.568;2024-03-23T17:33:01;8.82;;;5.70;;
22094;SDS011;24083;55.670;37.568;2024-03-23T17:36:15;8.10;;;5.43;;
22094;SDS011;24083;55.670;37.568;2024-03-23T17:39:25;10.38;;;5.80;;
22094;SDS011;24083;55.670;37.568;2024-03-23T17:45:12;10.75;;;6.88;;
22094;SDS011;24083;55.670;37.568;2024-03-23T17:48:13;8.60;;;6.45;;
22094;SDS011;24083;55.670;37.568;2024-03-23T17:50:48;10.48;;;7.68;;
22094;SDS011;24083;55.670;37.568;2024-03-23T17:53:18;6.28;;;4.13;;
22094;SDS011;24083;55.670;37.568;2024-03-23T17:55:49;6.43;;;4.05;;
22094;SDS011;24083;55.670;37.568;2024-03-23T17:58:25;7.88;;;5.72;;
22094;SDS011;24083;55.670;37.568;2024-03-23T18:04:13;10.77;;;6.90;;
22094;SDS011;24083;55.670;37.568;2024-03-23T18:09:40;10.15;;;6.85;;
22094;SDS011;24083;55.670;37.568;2024-03-23T18:12:23;7.32;;;5.20;;
22094;SDS011;24083;55.670;37.568;2024-03-23T18:14:54;6.95;;;3.92;;
22094;SDS011;24083;55.670;37.568;2024-03-23T18:20:23;7.60;;;5.25;;
22094;SDS011;24083;55.670;37.568;2024-03-23T18:23:03;8.15;;;5.43;;
22094;SDS011;24083;55.670;37.568;2024-03-23T18:28:37;7.55;;;4.07;;
22094;SDS011;24083;55.670;37.568;2024-03-23T18:31:07;9.70;;;7.05;;
22094;SDS011;24083;55.670;37.568;2024-03-23T18:33:36;8.50;;;5.88;;
22094;SDS011;24083;55.670;37.568;2024-03-23T18:36:02;9.70;;;5.28;;
22094;SDS011;24083;55.670;37.568;2024-03-23T18:38:32;9.60;;;6.43;;
22094;SDS011;24083;55.670;37.568;2024-03-23T18:41:16;11.43;;;6.63;;
22094;SDS011;24083;55.670;37.568;2024-03-23T18:43:45;9.88;;;6.75;;
22094;SDS011;24083;55.670;37.568;2024-03-23T18:46:16;7.57;;;4.35;;
22094;SDS011;24083;55.670;37.568;2024-03-23T18:48:46;8.30;;;4.50;;
22094;SDS011;24083;55.670;37.568;2024-03-23T18:54:04;9.05;;;5.95;;
22094;SDS011;24083;55.670;37.568;2024-03-23T18:56:32;10.95;;;5.43;;
22094;SDS011;24083;55.670;37.568;2024-03-23T18:59:03;10.27;;;6.65;;
22094;SDS011;24083;55.670;37.568;2024-03-23T19:01:42;9.27;;;3.75;;
22094;SDS011;24083;55.670;37.568;2024-03-23T19:07:14;7.93;;;4.43;;
22094;SDS011;24083;55.670;37.568;2024-03-23T19:09:55;6.22;;;3.78;;
22094;SDS011;24083;55.670;37.568;2024-03-23T19:15:50;8.55;;;6.25;;
22094;SDS011;24083;55.670;37.568;2024-03-23T19:18:58;9.38;;;5.75;;
22094;SDS011;24083;55.670;37.568;2024-03-23T19:27:32;6.28;;;4.05;;
22094;SDS011;24083;55.670;37.568;2024-03-23T19:30:03;11.23;;;6.30;;
22094;SDS011;24083;55.670;37.568;2024-03-23T19:35:44;6.30;;;4.20;;
22094;SDS011;24083;55.670;37.568;2024-03-23T19:38:26;10.23;;;5.25;;
22094;SDS011;24083;55.670;37.568;2024-03-23T19:43:55;8.07;;;4.40;;
22094;SDS011;24083;55.670;37.568;2024-03-23T19:46:28;10.48;;;6.22;;
22094;SDS011;24083;55.670;37.568;2024-03-23T19:58:52;11.27;;;6.40;;
22094;SDS011;24083;55.670;37.568;2024-03-23T20:01:23;9.38;;;5.43;;
22094;SDS011;24083;55.670;37.568;2024-03-23T20:03:51;13.20;;;7.03;;
22094;SDS011;24083;55.670;37.568;2024-03-23T20:06:18;11.18;;;6.38;;
22094;SDS011;24083;55.670;37.568;2024-03-23T20:12:59;10.05;;;5.25;;
22094;SDS011;24083;55.670;37.568;2024-03-23T20:18:00;12.18;;;7.45;;
22094;SDS011;24083;55.670;37.568;2024-03-23T20:20:29;11.77;;;7.72;;
22094;SDS011;24083;55.670;37.568;2024-03-23T20:22:55;12.00;;;8.27;;
22094;SDS011;24083;55.670;37.568;2024-03-23T20:31:26;13.07;;;6.20;;
22094;SDS011;24083;55.670;37.568;2024-03-23T20:36:40;10.45;;;6.75;;
22094;SDS011;24083;55.670;37.568;2024-03-23T20:39:07;30.23;;;9.50;;
22094;SDS011;24083;55.670;37.568;2024-03-23T20:41:54;13.57;;;8.90;;
22094;SDS011;24083;55.670;37.568;2024-03-23T20:44:28;14.10;;;9.05;;
22094;SDS011;24083;55.670;37.568;2024-03-23T20:46:55;15.45;;;10.18;;
22094;SDS011;24083;55.670;37.568;2024-03-23T20:49:28;11.13;;;6.57;;
22094;SDS011;24083;55.670;37.568;2024-03-23T20:55:15;13.25;;;8.75;;
22094;SDS011;24083;55.670;37.568;2024-03-23T20:57:44;12.15;;;6.95;;
22094;SDS011;24083;55.670;37.568;2024-03-23T21:00:14;17.08;;;9.45;;
22094;SDS011;24083;55.670;37.568;2024-03-23T21:02:48;14.48;;;9.00;;
22094;SDS011;24083;55.670;37.568;2024-03-23T21:21:30;18.98;;;10.32;;
22094;SDS011;24083;55.670;37.568;2024-03-23T21:24:14;13.23;;;8.13;;
22094;SDS011;24083;55.670;37.568;2024-03-23T21:27:07;13.93;;;7.47;;
22094;SDS011;24083;55.670;37.568;2024-03-23T21:30:13;13.90;;;7.53;;
22094;SDS011;24083;55.670;37.568;2024-03-23T21:45:53;17.65;;;10.80;;
22094;SDS011;24083;55.670;37.568;2024-03-23T21:48:34;10.45;;;5.40;;
22094;SDS011;24083;55.670;37.568;2024-03-23T21:51:04;13.35;;;7.72;;
22094;SDS011;24083;55.670;37.568;2024-03-23T21:54:09;15.07;;;8.60;;
22094;SDS011;24083;55.670;37.568;2024-03-23T21:59:31;15.45;;;8.80;;
22094;SDS011;24083;55.670;37.568;2024-03-23T22:14:49;17.27;;;10.10;;
22094;SDS011;24083;55.670;37.568;2024-03-23T22:17:41;14.30;;;8.90;;
22094;SDS011;24083;55.670;37.568;2024-03-23T22:20:13;15.00;;;8.25;;
22094;SDS011;24083;55.670;37.568;2024-03-23T22:25:56;17.48;;;9.45;;
22094;SDS011;24083;55.670;37.568;2024-03-23T22:36:01;19.65;;;11.75;;
22094;SDS011;24083;55.670;37.568;2024-03-23T22:41:30;15.07;;;9.20;;
22094;SDS011;24083;55.670;37.568;2024-03-23T22:53:58;18.27;;;9.75;;
22094;SDS011;24083;55.670;37.568;2024-03-23T22:56:26;18.38;;;10.80;;
22094;SDS011;24083;55.670;37.568;2024-03-23T22:58:56;19.75;;;11.80;;
22094;SDS011;24083;55.670;37.568;2024-03-23T23:01:22;16.17;;;10.23;;
22094;SDS011;24083;55.670;37.568;2024-03-23T23:03:48;14.00;;;7.32;;
22094;SDS011;24083;55.670;37.568;2024-03-23T23:06:13;18.15;;;10.10;;
22094;SDS011;24083;55.670;37.568;2024-03-23T23:08:40;17.40;;;10.30;;
22094;SDS011;24083;55.670;37.568;2024-03-23T23:11:06;16.10;;;9.75;;
22094;SDS011;24083;55.670;37.568;2024-03-23T23:13:34;26.17;;;11.38;;
22094;SDS011;24083;55.670;37.568;2024-03-23T23:16:01;14.85;;;7.80;;
22094;SDS011;24083;55.670;37.568;2024-03-23T23:18:26;22.27;;;13.48;;
22094;SDS011;24083;55.670;37.568;2024-03-23T23:20:54;19.90;;;11.40;;
22094;SDS011;24083;55.670;37.568;2024-03-23T23:23:20;20.88;;;12.25;;
22094;SDS011;24083;55.670;37.568;2024-03-23T23:25:46;23.52;;;9.35;;
22094;SDS011;24083;55.670;37.568;2024-03-23T23:28:12;20.65;;;12.05;;
22094;SDS011;24083;55.670;37.568;2024-03-23T23:30:38;19.35;;;12.05;;
22094;SDS011;24083;55.670;37.568;2024-03-23T23:33:11;21.80;;;12.63;;
22094;SDS011;24083;55.670;37.568;2024-03-23T23:35:38;25.25;;;9.57;;